createdAt,value
2019-05-20T00:00:04.396Z,6
2019-05-20T00:01:02.190Z,6
2019-05-20T00:02:02.330Z,6
2019-05-20T00:03:01.484Z,6
2019-05-20T00:04:01.685Z,5
2019-05-20T00:05:01.942Z,9
2019-05-20T00:06:02.381Z,9
2019-05-20T00:07:01.410Z,9
2019-05-20T00:08:01.653Z,9
2019-05-20T00:09:02.219Z,9
2019-05-20T00:10:02.223Z,6
2019-05-20T00:11:02.425Z,7
2019-05-20T00:12:01.725Z,7
2019-05-20T00:13:01.884Z,7
2019-05-20T00:14:02.060Z,7
2019-05-20T00:15:02.321Z,7
2019-05-20T00:16:01.534Z,8
2019-05-20T00:17:01.791Z,8
2019-05-20T00:18:02.016Z,8
2019-05-20T00:19:02.271Z,8
2019-05-20T00:20:01.555Z,8
2019-05-20T00:21:01.818Z,8
2019-05-20T00:22:01.899Z,8
2019-05-20T00:23:02.038Z,9
2019-05-20T00:24:02.350Z,9
2019-05-20T00:25:01.564Z,9
2019-05-20T00:26:01.784Z,9
2019-05-20T00:27:02.037Z,9
2019-05-20T00:28:02.222Z,5
2019-05-20T00:29:01.720Z,8
2019-05-20T00:30:01.657Z,8
2019-05-20T00:31:01.962Z,8
2019-05-20T00:32:02.142Z,8
2019-05-20T00:33:02.359Z,8
2019-05-20T00:34:01.834Z,5
2019-05-20T00:35:02.219Z,7
2019-05-20T00:36:02.259Z,7
2019-05-20T00:37:02.446Z,7
2019-05-20T00:38:01.600Z,7
2019-05-20T00:39:01.903Z,7
2019-05-20T00:40:02.085Z,6
2019-05-20T00:41:02.336Z,6
2019-05-20T00:42:01.592Z,6
2019-05-20T00:43:01.868Z,6
2019-05-20T00:44:02.111Z,6
2019-05-20T00:45:02.286Z,6
2019-05-20T00:46:01.578Z,6
2019-05-20T00:47:01.716Z,10
2019-05-20T00:48:01.973Z,10
2019-05-20T00:49:02.247Z,10
2019-05-20T00:50:02.097Z,10
2019-05-20T00:51:01.745Z,10
2019-05-20T00:52:01.959Z,5
2019-05-20T00:53:02.128Z,7
2019-05-20T00:54:02.339Z,7
2019-05-20T00:55:01.559Z,7
2019-05-20T00:56:01.689Z,7
2019-05-20T00:57:01.908Z,7
2019-05-20T00:58:02.101Z,8
2019-05-20T00:59:02.437Z,6
2019-05-20T01:00:05.054Z,6
2019-05-20T01:01:01.923Z,6
2019-05-20T01:02:02.065Z,6
2019-05-20T01:03:02.261Z,6
2019-05-20T01:04:01.495Z,5
2019-05-20T01:05:01.764Z,6
2019-05-20T01:06:01.977Z,6
2019-05-20T01:07:02.112Z,6
2019-05-20T01:08:02.295Z,6
2019-05-20T01:09:01.655Z,6
2019-05-20T01:10:01.918Z,5
2019-05-20T01:11:02.153Z,9
2019-05-20T01:12:02.281Z,9
2019-05-20T01:13:01.544Z,9
2019-05-20T01:14:01.826Z,9
2019-05-20T01:15:02.069Z,9
2019-05-20T01:16:02.297Z,8
2019-05-20T01:17:01.900Z,5
2019-05-20T01:18:01.683Z,5
2019-05-20T01:19:01.884Z,5
2019-05-20T01:20:02.104Z,5
2019-05-20T01:21:02.404Z,5
2019-05-20T01:22:01.576Z,4
2019-05-20T01:23:01.807Z,6
2019-05-20T01:24:02.316Z,6
2019-05-20T01:25:01.493Z,6
2019-05-20T01:26:01.799Z,6
2019-05-20T01:27:01.971Z,6
2019-05-20T01:28:02.264Z,6
2019-05-20T01:29:01.453Z,8
2019-05-20T01:30:01.769Z,8
2019-05-20T01:31:02.022Z,8
2019-05-20T01:32:02.262Z,8
2019-05-20T01:33:13.302Z,8
2019-05-20T01:34:01.708Z,6
2019-05-20T01:35:02.110Z,8
2019-05-20T01:36:02.230Z,8
2019-05-20T01:37:01.420Z,8
2019-05-20T01:38:01.666Z,8
2019-05-20T01:39:01.948Z,8
2019-05-20T01:40:02.163Z,5
2019-05-20T01:41:02.335Z,8
2019-05-20T01:42:01.555Z,8
2019-05-20T01:43:01.790Z,8
2019-05-20T01:44:02.057Z,8
2019-05-20T01:45:02.270Z,8
2019-05-20T01:46:01.498Z,5
2019-05-20T01:47:01.742Z,9
2019-05-20T01:48:01.953Z,9
2019-05-20T01:49:02.136Z,9
2019-05-20T01:50:02.349Z,9
2019-05-20T01:51:01.602Z,9
2019-05-20T01:52:01.848Z,5
2019-05-20T01:53:02.060Z,8
2019-05-20T01:54:02.335Z,8
2019-05-20T01:55:01.615Z,8
2019-05-20T01:56:01.790Z,8
2019-05-20T01:57:02.154Z,8
2019-05-20T01:58:02.284Z,6
2019-05-20T01:59:01.478Z,6
2019-05-20T02:00:03.505Z,6
2019-05-20T02:01:02.369Z,6
2019-05-20T02:02:01.660Z,6
2019-05-20T02:03:01.863Z,6
2019-05-20T02:04:02.184Z,6
2019-05-20T02:05:02.347Z,9
2019-05-20T02:06:01.598Z,9
2019-05-20T02:07:01.840Z,9
2019-05-20T02:08:02.137Z,9
2019-05-20T02:09:02.302Z,9
2019-05-20T02:10:01.472Z,5
2019-05-20T02:11:01.731Z,6
2019-05-20T02:12:01.931Z,6
2019-05-20T02:13:02.102Z,6
2019-05-20T02:14:02.322Z,6
2019-05-20T02:15:01.754Z,6
2019-05-20T02:16:01.825Z,8
2019-05-20T02:17:02.800Z,10
2019-05-20T02:18:02.358Z,10
2019-05-20T02:19:01.630Z,10
2019-05-20T02:20:01.935Z,10
2019-05-20T02:21:02.039Z,10
2019-05-20T02:22:02.219Z,6
2019-05-20T02:23:02.394Z,9
2019-05-20T02:24:01.741Z,9
2019-05-20T02:25:02.053Z,9
2019-05-20T02:26:02.171Z,9
2019-05-20T02:27:02.344Z,9
2019-05-20T02:28:01.557Z,9
2019-05-20T02:29:01.760Z,8
2019-05-20T02:30:02.143Z,8
2019-05-20T02:31:02.171Z,8
2019-05-20T02:32:02.431Z,8
2019-05-20T02:33:01.649Z,8
2019-05-20T02:34:02.032Z,8
2019-05-20T02:35:02.216Z,6
2019-05-20T02:36:02.317Z,6
2019-05-20T02:37:01.526Z,6
2019-05-20T02:38:01.842Z,6
2019-05-20T02:39:01.657Z,6
2019-05-20T02:40:01.812Z,5
2019-05-20T02:41:02.064Z,8
2019-05-20T02:42:02.220Z,8
2019-05-20T02:43:01.449Z,8
2019-05-20T02:44:01.714Z,8
2019-05-20T02:45:02.019Z,8
2019-05-20T02:46:02.234Z,8
2019-05-20T02:47:01.439Z,6
2019-05-20T02:48:01.723Z,6
2019-05-20T02:49:02.001Z,6
2019-05-20T02:50:02.343Z,6
2019-05-20T02:51:01.565Z,6
2019-05-20T02:52:01.777Z,8
2019-05-20T02:53:02.103Z,8
2019-05-20T02:54:02.426Z,8
2019-05-20T02:55:01.500Z,8
2019-05-20T02:56:01.743Z,8
2019-05-20T02:57:01.894Z,8
2019-05-20T02:58:02.015Z,5
2019-05-20T02:59:02.277Z,7
2019-05-20T03:00:01.564Z,7
2019-05-20T03:01:01.655Z,7
2019-05-20T03:02:02.019Z,7
2019-05-20T03:03:02.102Z,7
2019-05-20T03:04:11.420Z,8
2019-05-20T03:05:01.634Z,6
2019-05-20T03:06:01.867Z,6
2019-05-20T03:07:02.140Z,6
2019-05-20T03:08:02.363Z,6
2019-05-20T03:09:01.584Z,6
2019-05-20T03:10:01.857Z,6
2019-05-20T03:11:02.067Z,7
2019-05-20T03:12:02.327Z,7
2019-05-20T03:13:01.632Z,7
2019-05-20T03:14:01.834Z,7
2019-05-20T03:15:02.130Z,7
2019-05-20T03:16:02.413Z,6
2019-05-20T03:17:01.643Z,7
2019-05-20T03:18:01.867Z,7
2019-05-20T03:19:02.173Z,7
2019-05-20T03:20:01.545Z,7
2019-05-20T03:21:01.809Z,7
2019-05-20T03:22:02.085Z,4
2019-05-20T03:23:02.333Z,6
2019-05-20T03:24:01.706Z,6
2019-05-20T03:25:01.902Z,6
2019-05-20T03:26:02.147Z,6
2019-05-20T03:27:02.403Z,6
2019-05-20T03:28:01.656Z,6
2019-05-20T03:29:01.892Z,6
2019-05-20T03:30:02.143Z,6
2019-05-20T03:31:02.275Z,6
2019-05-20T03:32:01.624Z,6
2019-05-20T03:33:01.710Z,6
2019-05-20T03:34:01.872Z,6
2019-05-20T03:35:02.354Z,6
2019-05-20T03:36:02.394Z,6
2019-05-20T03:37:01.723Z,6
2019-05-20T03:38:01.842Z,6
2019-05-20T03:39:02.138Z,6
2019-05-20T03:40:02.352Z,5
2019-05-20T03:41:01.603Z,6
2019-05-20T03:42:01.789Z,6
2019-05-20T03:43:01.992Z,6
2019-05-20T03:44:02.177Z,6
2019-05-20T03:45:02.447Z,6
2019-05-20T03:46:01.576Z,6
2019-05-20T03:47:01.756Z,5
2019-05-20T03:48:01.968Z,5
2019-05-20T03:49:02.256Z,5
2019-05-20T03:50:02.456Z,5
2019-05-20T03:51:01.701Z,5
2019-05-20T03:52:01.883Z,5
2019-05-20T03:53:02.068Z,6
2019-05-20T03:54:02.384Z,6
2019-05-20T03:55:01.583Z,6
2019-05-20T03:56:01.737Z,6
2019-05-20T03:57:01.944Z,6
2019-05-20T03:58:02.135Z,6
2019-05-20T03:59:02.389Z,8
2019-05-20T04:00:05.261Z,8
2019-05-20T04:01:02.172Z,8
2019-05-20T04:02:02.392Z,8
2019-05-20T04:03:01.608Z,8
2019-05-20T04:04:01.842Z,8
2019-05-20T04:05:03.270Z,6
2019-05-20T04:06:02.271Z,6
2019-05-20T04:07:01.505Z,6
2019-05-20T04:08:01.754Z,6
2019-05-20T04:09:02.037Z,6
2019-05-20T04:10:02.350Z,5
2019-05-20T04:11:01.626Z,6
2019-05-20T04:12:01.831Z,6
2019-05-20T04:13:02.063Z,6
2019-05-20T04:14:02.364Z,6
2019-05-20T04:15:01.502Z,6
2019-05-20T04:16:01.787Z,6
2019-05-20T04:17:01.979Z,8
2019-05-20T04:18:02.209Z,8
2019-05-20T04:19:01.496Z,8
2019-05-20T04:20:01.719Z,8
2019-05-20T04:21:01.971Z,8
2019-05-20T04:22:02.216Z,8
2019-05-20T04:23:02.375Z,6
2019-05-20T04:24:02.096Z,6
2019-05-20T04:25:01.803Z,6
2019-05-20T04:26:02.020Z,6
2019-05-20T04:27:02.256Z,6
2019-05-20T04:28:01.512Z,6
2019-05-20T04:29:01.885Z,5
2019-05-20T04:30:02.086Z,5
2019-05-20T04:31:02.302Z,5
2019-05-20T04:32:01.559Z,5
2019-05-20T04:33:01.815Z,5
2019-05-20T04:34:02.057Z,5
2019-05-20T04:35:20.824Z,5
2019-05-20T04:36:01.554Z,5
2019-05-20T04:37:01.733Z,5
2019-05-20T04:38:01.901Z,5
2019-05-20T04:39:02.120Z,5
2019-05-20T04:40:02.330Z,5
2019-05-20T04:41:01.514Z,6
2019-05-20T04:42:05.562Z,6
2019-05-20T04:43:02.039Z,6
2019-05-20T04:44:02.271Z,6
2019-05-20T04:45:01.604Z,6
2019-05-20T04:46:01.692Z,6
2019-05-20T04:47:01.892Z,6
2019-05-20T04:48:02.187Z,6
2019-05-20T04:49:02.357Z,6
2019-05-20T04:50:01.740Z,6
2019-05-20T04:51:01.955Z,6
2019-05-20T04:52:02.268Z,6
2019-05-20T04:53:01.532Z,6
2019-05-20T04:54:01.752Z,6
2019-05-20T04:55:02.085Z,6
2019-05-20T04:56:02.316Z,6
2019-05-20T04:57:01.430Z,6
2019-05-20T04:58:01.763Z,6
2019-05-20T04:59:01.836Z,6
2019-05-20T05:00:03.836Z,6
2019-05-20T05:01:01.647Z,6
2019-05-20T05:02:01.803Z,6
2019-05-20T05:03:02.133Z,6
2019-05-20T05:04:02.381Z,6
2019-05-20T05:05:01.659Z,8
2019-05-20T05:06:01.823Z,8
2019-05-20T05:07:02.163Z,8
2019-05-20T05:08:01.494Z,8
2019-05-20T05:09:01.884Z,8
2019-05-20T05:10:02.103Z,8
2019-05-20T05:11:02.237Z,5
2019-05-20T05:12:01.459Z,5
2019-05-20T05:13:01.640Z,5
2019-05-20T05:14:01.922Z,5
2019-05-20T05:15:04.682Z,5
2019-05-20T05:16:02.376Z,5
2019-05-20T05:17:01.619Z,6
2019-05-20T05:18:01.808Z,6
2019-05-20T05:19:01.995Z,6
2019-05-20T05:20:02.424Z,6
2019-05-20T05:21:01.549Z,6
2019-05-20T05:22:01.769Z,6
2019-05-20T05:23:01.946Z,5
2019-05-20T05:24:01.928Z,5
2019-05-20T05:25:05.733Z,5
2019-05-20T05:26:02.377Z,5
2019-05-20T05:27:01.611Z,5
2019-05-20T05:28:01.761Z,5
2019-05-20T05:29:02.038Z,8
2019-05-20T05:30:02.325Z,8
2019-05-20T05:31:01.479Z,8
2019-05-20T05:32:01.542Z,8
2019-05-20T05:33:01.851Z,8
2019-05-20T05:34:02.050Z,8
2019-05-20T05:35:02.328Z,5
2019-05-20T05:36:01.545Z,5
2019-05-20T05:37:01.737Z,5
2019-05-20T05:38:02.803Z,5
2019-05-20T05:39:02.227Z,5
2019-05-20T05:40:01.600Z,5
2019-05-20T05:41:01.750Z,5
2019-05-20T05:42:02.012Z,5
2019-05-20T05:43:02.198Z,5
2019-05-20T05:44:02.320Z,5
2019-05-20T05:45:01.573Z,5
2019-05-20T05:46:01.778Z,5
2019-05-20T05:47:01.902Z,5
2019-05-20T05:48:02.171Z,5
2019-05-20T05:49:02.331Z,5
2019-05-20T05:50:01.723Z,5
2019-05-20T05:51:01.856Z,5
2019-05-20T05:52:02.042Z,5
2019-05-20T05:53:02.270Z,6
2019-05-20T05:54:01.525Z,6
2019-05-20T05:55:01.722Z,6
2019-05-20T05:56:01.984Z,6
2019-05-20T05:57:02.167Z,6
2019-05-20T05:58:02.421Z,6
2019-05-20T05:59:01.672Z,5
2019-05-20T06:00:05.321Z,5
2019-05-20T06:01:02.189Z,5
2019-05-20T06:02:02.394Z,5
2019-05-20T06:03:01.690Z,5
2019-05-20T06:04:01.996Z,5
2019-05-20T06:05:02.215Z,4
2019-05-20T06:06:11.366Z,4
2019-05-20T06:07:01.727Z,4
2019-05-20T06:08:01.950Z,4
2019-05-20T06:09:02.182Z,4
2019-05-20T06:10:02.420Z,4
2019-05-20T06:11:01.614Z,8
2019-05-20T06:12:01.821Z,8
2019-05-20T06:13:02.107Z,8
2019-05-20T06:14:02.308Z,8
2019-05-20T06:15:01.744Z,8
2019-05-20T06:16:01.773Z,8
2019-05-20T06:17:01.950Z,5
2019-05-20T06:18:02.178Z,5
2019-05-20T06:19:01.453Z,5
2019-05-20T06:20:01.792Z,5
2019-05-20T06:21:01.974Z,5
2019-05-20T06:22:02.143Z,5
2019-05-20T06:23:02.435Z,5
2019-05-20T06:24:01.694Z,5
2019-05-20T06:25:01.920Z,5
2019-05-20T06:26:02.104Z,5
2019-05-20T06:27:02.385Z,5
2019-05-20T06:28:01.600Z,5
2019-05-20T06:29:03.044Z,3
2019-05-20T06:30:02.022Z,3
2019-05-20T06:31:02.333Z,3
2019-05-20T06:32:01.584Z,3
2019-05-20T06:33:01.877Z,3
2019-05-20T06:34:02.038Z,3
2019-05-20T06:35:02.256Z,5
2019-05-20T06:36:01.536Z,5
2019-05-20T06:37:01.750Z,5
2019-05-20T06:38:01.899Z,5
2019-05-20T06:39:02.160Z,5
2019-05-20T06:40:02.402Z,5
2019-05-20T06:41:01.499Z,6
2019-05-20T06:42:01.862Z,6
2019-05-20T06:43:01.915Z,6
2019-05-20T06:44:02.118Z,6
2019-05-20T06:45:01.631Z,6
2019-05-20T06:46:01.785Z,6
2019-05-20T06:47:02.146Z,4
2019-05-20T06:48:02.241Z,4
2019-05-20T06:49:02.472Z,4
2019-05-20T06:50:01.717Z,4
2019-05-20T06:51:01.923Z,4
2019-05-20T06:52:02.148Z,4
2019-05-20T06:53:02.351Z,5
2019-05-20T06:54:01.594Z,5
2019-05-20T06:55:01.922Z,5
2019-05-20T06:56:01.985Z,5
2019-05-20T06:57:02.243Z,5
2019-05-20T06:58:02.392Z,5
2019-05-20T06:59:01.733Z,6
2019-05-20T07:00:03.326Z,6
2019-05-20T07:01:02.136Z,6
2019-05-20T07:02:02.268Z,6
2019-05-20T07:03:01.517Z,6
2019-05-20T07:04:01.755Z,6
2019-05-20T07:05:02.067Z,5
2019-05-20T07:06:02.252Z,5
2019-05-20T07:07:01.500Z,5
2019-05-20T07:08:01.762Z,5
2019-05-20T07:09:01.921Z,5
2019-05-20T07:10:02.276Z,5
2019-05-20T07:11:01.417Z,6
2019-05-20T07:12:01.613Z,6
2019-05-20T07:13:01.804Z,6
2019-05-20T07:14:02.086Z,6
2019-05-20T07:15:02.872Z,6
2019-05-20T07:16:01.564Z,6
2019-05-20T07:17:01.797Z,6
2019-05-20T07:18:01.859Z,6
2019-05-20T07:19:02.345Z,6
2019-05-20T07:20:01.640Z,6
2019-05-20T07:21:01.803Z,6
2019-05-20T07:22:02.045Z,6
2019-05-20T07:23:02.259Z,6
2019-05-20T07:24:02.396Z,6
2019-05-20T07:25:02.048Z,6
2019-05-20T07:26:01.850Z,6
2019-05-20T07:27:02.168Z,6
2019-05-20T07:28:02.250Z,6
2019-05-20T07:29:01.493Z,5
2019-05-20T07:30:02.256Z,5
2019-05-20T07:31:01.456Z,5
2019-05-20T07:32:01.702Z,5
2019-05-20T07:33:01.999Z,5
2019-05-20T07:34:02.234Z,5
2019-05-20T07:35:01.464Z,2
2019-05-20T07:36:01.643Z,2
2019-05-20T07:37:03.996Z,2
2019-05-20T07:38:02.093Z,2
2019-05-20T07:39:02.307Z,2
2019-05-20T07:40:01.600Z,2
2019-05-20T07:41:01.694Z,8
2019-05-20T07:42:02.399Z,8
2019-05-20T07:43:01.641Z,8
2019-05-20T07:44:01.968Z,8
2019-05-20T07:45:02.385Z,8
2019-05-20T07:46:02.326Z,8
2019-05-20T07:47:01.533Z,5
2019-05-20T07:48:01.724Z,5
2019-05-20T07:49:02.034Z,5
2019-05-20T07:50:02.192Z,5
2019-05-20T07:51:02.374Z,5
2019-05-20T07:52:01.614Z,5
2019-05-20T07:53:01.791Z,5
2019-05-20T07:54:02.125Z,5
2019-05-20T07:55:02.305Z,5
2019-05-20T07:56:01.580Z,5
2019-05-20T07:57:01.821Z,5
2019-05-20T07:58:02.000Z,5
2019-05-20T07:59:02.269Z,4
2019-05-20T08:00:03.486Z,4
2019-05-20T08:01:02.379Z,4
2019-05-20T08:02:01.558Z,4
2019-05-20T08:03:01.807Z,4
2019-05-20T08:04:02.024Z,4
2019-05-20T08:05:02.796Z,5
2019-05-20T08:06:01.526Z,5
2019-05-20T08:07:26.029Z,5
2019-05-20T08:08:02.335Z,5
2019-05-20T08:09:02.333Z,5
2019-05-20T08:10:01.752Z,5
2019-05-20T08:11:01.828Z,5
2019-05-20T08:12:02.074Z,5
2019-05-20T08:13:02.269Z,5
2019-05-20T08:14:01.497Z,5
2019-05-20T08:15:01.615Z,5
2019-05-20T08:16:01.842Z,5
2019-05-20T08:17:02.125Z,5
2019-05-20T08:18:02.341Z,5
2019-05-20T08:19:01.444Z,5
2019-05-20T08:20:01.824Z,5
2019-05-20T08:21:01.910Z,5
2019-05-20T08:22:02.158Z,5
2019-05-20T08:23:02.571Z,3
2019-05-20T08:24:01.712Z,3
2019-05-20T08:25:01.899Z,3
2019-05-20T08:26:02.117Z,3
2019-05-20T08:27:02.357Z,3
2019-05-20T08:28:01.549Z,3
2019-05-20T08:29:01.784Z,5
2019-05-20T08:30:02.062Z,5
2019-05-20T08:31:02.175Z,5
2019-05-20T08:32:01.497Z,5
2019-05-20T08:33:01.559Z,5
2019-05-20T08:34:01.783Z,5
2019-05-20T08:35:02.088Z,4
2019-05-20T08:36:02.240Z,4
2019-05-20T08:37:04.991Z,4
2019-05-20T08:38:01.678Z,4
2019-05-20T08:39:01.894Z,4
2019-05-20T08:40:02.132Z,4
2019-05-20T08:41:02.438Z,5
2019-05-20T08:42:01.752Z,5
2019-05-20T08:43:01.790Z,5
2019-05-20T08:44:02.006Z,5
2019-05-20T08:45:02.983Z,5
2019-05-20T08:46:01.445Z,5
2019-05-20T08:47:01.994Z,6
2019-05-20T08:48:01.968Z,6
2019-05-20T08:49:02.138Z,6
2019-05-20T08:50:05.070Z,6
2019-05-20T08:51:01.666Z,6
2019-05-20T08:52:01.980Z,6
2019-05-20T08:53:02.190Z,8
2019-05-20T08:54:02.439Z,8
2019-05-20T08:55:02.669Z,8
2019-05-20T08:56:01.843Z,8
2019-05-20T08:57:02.181Z,8
2019-05-20T08:58:02.286Z,8
2019-05-20T08:59:01.453Z,6
2019-05-20T09:00:04.886Z,6
2019-05-20T09:01:02.175Z,6
2019-05-20T09:02:02.418Z,6
2019-05-20T09:03:01.546Z,6
2019-05-20T09:04:01.776Z,6
2019-05-20T09:05:02.019Z,4
2019-05-20T09:06:02.338Z,4
2019-05-20T09:07:01.657Z,4
2019-05-20T09:08:03.499Z,4
2019-05-20T09:09:01.933Z,4
2019-05-20T09:10:02.291Z,4
2019-05-20T09:11:02.439Z,5
2019-05-20T09:12:01.519Z,5
2019-05-20T09:13:01.761Z,5
2019-05-20T09:14:02.010Z,5
2019-05-20T09:15:02.298Z,5
2019-05-20T09:16:01.425Z,5
2019-05-20T09:17:01.651Z,6
2019-05-20T09:18:02.074Z,6
2019-05-20T09:19:02.311Z,6
2019-05-20T09:20:02.385Z,6
2019-05-20T09:21:01.566Z,6
2019-05-20T09:22:01.822Z,6
2019-05-20T09:23:02.986Z,3
2019-05-20T09:24:02.163Z,3
2019-05-20T09:25:02.817Z,3
2019-05-20T09:26:01.695Z,3
2019-05-20T09:27:01.831Z,3
2019-05-20T09:28:02.101Z,3
2019-05-20T09:29:02.297Z,5
2019-05-20T09:30:02.430Z,5
2019-05-20T09:31:01.804Z,5
2019-05-20T09:32:01.972Z,5
2019-05-20T09:33:02.134Z,5
2019-05-20T09:34:02.405Z,5
2019-05-20T09:35:01.763Z,5
2019-05-20T09:36:02.201Z,5
2019-05-20T09:37:02.153Z,5
2019-05-20T09:38:01.610Z,5
2019-05-20T09:39:01.773Z,5
2019-05-20T09:40:01.945Z,5
2019-05-20T09:41:02.182Z,6
2019-05-20T09:42:02.495Z,6
2019-05-20T09:43:01.627Z,6
2019-05-20T09:44:01.837Z,6
2019-05-20T09:45:03.313Z,6
2019-05-20T09:46:07.435Z,6
2019-05-20T09:47:01.666Z,5
2019-05-20T09:48:02.024Z,5
2019-05-20T09:49:02.138Z,5
2019-05-20T09:50:02.515Z,5
2019-05-20T09:51:01.753Z,5
2019-05-20T09:52:01.751Z,5
2019-05-20T09:53:07.073Z,5
2019-05-20T09:54:02.197Z,5
2019-05-20T09:55:01.759Z,5
2019-05-20T09:56:01.781Z,5
2019-05-20T09:57:01.960Z,5
2019-05-20T09:58:02.322Z,5
2019-05-20T09:59:01.555Z,3
2019-05-20T10:00:04.522Z,3
2019-05-20T10:01:02.253Z,3
2019-05-20T10:02:01.517Z,3
2019-05-20T10:03:01.806Z,3
2019-05-20T10:04:01.983Z,3
2019-05-20T10:05:02.460Z,5
2019-05-20T10:06:06.027Z,5
2019-05-20T10:07:01.639Z,5
2019-05-20T10:08:01.928Z,5
2019-05-20T10:09:02.040Z,5
2019-05-20T10:10:02.302Z,5
2019-05-20T10:11:01.570Z,3
2019-05-20T10:12:01.673Z,3
2019-05-20T10:13:01.951Z,3
2019-05-20T10:14:01.489Z,3
2019-05-20T10:15:01.845Z,3
2019-05-20T10:16:01.905Z,3
2019-05-20T10:17:02.645Z,5
2019-05-20T10:18:02.474Z,5
2019-05-20T10:19:01.502Z,5
2019-05-20T10:20:01.891Z,5
2019-05-20T10:21:02.042Z,5
2019-05-20T10:22:02.237Z,5
2019-05-20T10:23:02.412Z,6
2019-05-20T10:24:01.555Z,6
2019-05-20T10:25:01.859Z,6
2019-05-20T10:26:02.262Z,6
2019-05-20T10:27:02.404Z,6
2019-05-20T10:28:01.589Z,6
2019-05-20T10:29:01.823Z,3
2019-05-20T10:30:01.977Z,3
2019-05-20T10:31:02.305Z,3
2019-05-20T10:32:01.415Z,3
2019-05-20T10:33:01.683Z,3
2019-05-20T10:34:01.874Z,3
2019-05-20T10:35:02.095Z,5
2019-05-20T10:36:02.374Z,5
2019-05-20T10:37:01.492Z,5
2019-05-20T10:38:01.714Z,5
2019-05-20T10:39:01.923Z,5
2019-05-20T10:40:02.272Z,5
2019-05-20T10:41:02.469Z,5
2019-05-20T10:42:01.564Z,5
2019-05-20T10:43:01.746Z,5
2019-05-20T10:44:01.971Z,5
2019-05-20T10:45:02.723Z,5
2019-05-20T10:46:02.450Z,5
2019-05-20T10:47:01.610Z,6
2019-05-20T10:48:01.905Z,6
2019-05-20T10:49:02.089Z,6
2019-05-20T10:50:02.366Z,6
2019-05-20T10:51:01.511Z,6
2019-05-20T10:52:01.752Z,6
2019-05-20T10:53:02.011Z,5
2019-05-20T10:54:02.155Z,5
2019-05-20T10:55:02.387Z,5
2019-05-20T10:56:02.113Z,5
2019-05-20T10:57:01.773Z,5
2019-05-20T10:58:02.096Z,5
2019-05-20T10:59:02.280Z,5
2019-05-20T11:00:06.283Z,5
2019-05-20T11:01:03.604Z,5
2019-05-20T11:02:02.395Z,5
2019-05-20T11:03:01.735Z,5
2019-05-20T11:04:01.825Z,5
2019-05-20T11:05:02.028Z,5
2019-05-20T11:06:02.309Z,5
2019-05-20T11:07:01.559Z,5
2019-05-20T11:08:01.865Z,5
2019-05-20T11:09:13.644Z,5
2019-05-20T11:10:02.331Z,5
2019-05-20T11:11:01.515Z,6
2019-05-20T11:12:01.718Z,6
2019-05-20T11:13:01.959Z,6
2019-05-20T11:14:02.275Z,6
2019-05-20T11:15:02.835Z,6
2019-05-20T11:16:01.671Z,6
2019-05-20T11:17:01.942Z,3
2019-05-20T11:18:02.113Z,3
2019-05-20T11:19:02.462Z,3
2019-05-20T11:20:01.630Z,3
2019-05-20T11:21:01.936Z,3
2019-05-20T11:22:02.127Z,3
2019-05-20T11:23:02.305Z,5
2019-05-20T11:24:01.514Z,5
2019-05-20T11:25:01.865Z,5
2019-05-20T11:26:02.019Z,5
2019-05-20T11:27:02.325Z,5
2019-05-20T11:28:01.572Z,5
2019-05-20T11:29:01.706Z,5
2019-05-20T11:30:02.090Z,5
2019-05-20T11:31:02.229Z,5
2019-05-20T11:32:01.460Z,5
2019-05-20T11:33:01.573Z,5
2019-05-20T11:34:01.793Z,5
2019-05-20T11:35:02.599Z,7
2019-05-20T11:36:02.279Z,7
2019-05-20T11:37:01.669Z,7
2019-05-20T11:38:01.763Z,7
2019-05-20T11:39:02.096Z,7
2019-05-20T11:40:03.043Z,7
2019-05-20T11:41:01.510Z,7
2019-05-20T11:42:01.700Z,7
2019-05-20T11:43:01.945Z,7
2019-05-20T11:44:02.073Z,7
2019-05-20T11:45:02.427Z,7
2019-05-20T11:46:01.633Z,7
2019-05-20T11:47:01.808Z,6
2019-05-20T11:48:02.130Z,6
2019-05-20T11:49:02.310Z,6
2019-05-20T11:50:01.822Z,6
2019-05-20T11:51:01.769Z,6
2019-05-20T11:52:02.132Z,6
2019-05-20T11:53:02.353Z,5
2019-05-20T11:54:01.482Z,5
2019-05-20T11:55:01.760Z,5
2019-05-20T11:56:01.955Z,5
2019-05-20T11:57:02.255Z,5
2019-05-20T11:58:15.369Z,5
2019-05-20T11:59:01.713Z,6
2019-05-20T12:00:04.991Z,6
2019-05-20T12:01:01.861Z,6
2019-05-20T12:02:04.058Z,6
2019-05-20T12:03:02.442Z,6
2019-05-20T12:04:01.615Z,6
2019-05-20T12:05:02.016Z,7
2019-05-20T12:06:03.008Z,7
2019-05-20T12:07:02.204Z,7
2019-05-20T12:08:01.514Z,7
2019-05-20T12:09:01.697Z,7
2019-05-20T12:10:01.968Z,7
2019-05-20T12:11:02.179Z,5
2019-05-20T12:12:02.473Z,5
2019-05-20T12:13:01.663Z,5
2019-05-20T12:14:01.735Z,5
2019-05-20T12:15:03.052Z,5
2019-05-20T12:16:02.310Z,5
2019-05-20T12:17:01.515Z,7
2019-05-20T12:18:01.691Z,7
2019-05-20T12:19:01.898Z,7
2019-05-20T12:20:03.743Z,7
2019-05-20T12:21:01.462Z,7
2019-05-20T12:22:01.731Z,7
2019-05-20T12:23:01.964Z,7
2019-05-20T12:24:02.128Z,7
2019-05-20T12:25:02.434Z,7
2019-05-20T12:26:01.582Z,7
2019-05-20T12:27:01.875Z,7
2019-05-20T12:28:02.094Z,7
2019-05-20T12:29:02.388Z,9
2019-05-20T12:30:01.702Z,9
2019-05-20T12:31:02.000Z,9
2019-05-20T12:32:03.650Z,9
2019-05-20T12:33:17.762Z,9
2019-05-20T12:34:01.617Z,9
2019-05-20T12:35:01.986Z,9
2019-05-20T12:36:02.152Z,9
2019-05-20T12:37:02.247Z,9
2019-05-20T12:38:01.563Z,9
2019-05-20T12:39:01.656Z,9
2019-05-20T12:40:07.018Z,9
2019-05-20T12:41:02.048Z,6
2019-05-20T12:42:02.345Z,6
2019-05-20T12:43:01.634Z,6
2019-05-20T12:44:12.178Z,6
2019-05-20T12:45:02.292Z,6
2019-05-20T12:46:02.343Z,6
2019-05-20T12:47:01.653Z,6
2019-05-20T12:48:01.871Z,6
2019-05-20T12:49:02.230Z,6
2019-05-20T12:50:02.253Z,6
2019-05-20T12:51:01.568Z,6
2019-05-20T12:52:01.729Z,6
2019-05-20T12:53:02.246Z,6
2019-05-20T12:54:02.192Z,6
2019-05-20T12:55:08.181Z,6
2019-05-20T12:56:01.670Z,6
2019-05-20T12:57:01.960Z,6
2019-05-20T12:58:02.231Z,6
2019-05-20T12:59:02.446Z,9
2019-05-20T13:00:03.656Z,9
2019-05-20T13:01:01.465Z,9
2019-05-20T13:02:01.681Z,9
2019-05-20T13:03:01.902Z,9
2019-05-20T13:04:02.203Z,9
2019-05-20T13:05:02.443Z,9
2019-05-20T13:06:01.599Z,9
2019-05-20T13:07:01.837Z,9
2019-05-20T13:08:02.123Z,9
2019-05-20T13:09:02.347Z,9
2019-05-20T13:10:03.061Z,9
2019-05-20T13:11:01.888Z,9
2019-05-20T13:12:02.074Z,9
2019-05-20T13:13:02.336Z,9
2019-05-20T13:14:01.527Z,9
2019-05-20T13:15:01.845Z,9
2019-05-20T13:16:02.203Z,9
2019-05-20T13:17:02.204Z,9
2019-05-20T13:18:01.587Z,9
2019-05-20T13:19:01.600Z,9
2019-05-20T13:20:01.827Z,9
2019-05-20T13:21:02.323Z,9
2019-05-20T13:22:02.274Z,9
2019-05-20T13:23:01.992Z,10
2019-05-20T13:24:01.695Z,10
2019-05-20T13:25:01.971Z,10
2019-05-20T13:26:02.153Z,10
2019-05-20T13:27:02.402Z,10
2019-05-20T13:28:01.836Z,10
2019-05-20T13:29:02.065Z,7
2019-05-20T13:30:02.156Z,7
2019-05-20T13:31:02.325Z,7
2019-05-20T13:32:01.481Z,7
2019-05-20T13:33:01.717Z,7
2019-05-20T13:34:01.928Z,7
2019-05-20T13:35:02.179Z,10
2019-05-20T13:36:02.346Z,10
2019-05-20T13:37:01.582Z,10
2019-05-20T13:38:01.840Z,10
2019-05-20T13:39:02.048Z,10
2019-05-20T13:40:03.409Z,10
2019-05-20T13:41:01.536Z,6
2019-05-20T13:42:01.802Z,6
2019-05-20T13:43:01.974Z,6
2019-05-20T13:44:02.237Z,6
2019-05-20T13:45:01.568Z,6
2019-05-20T13:46:01.692Z,6
2019-05-20T13:47:01.875Z,9
2019-05-20T13:48:02.139Z,9
2019-05-20T13:49:02.395Z,9
2019-05-20T13:50:01.664Z,9
2019-05-20T13:51:01.879Z,9
2019-05-20T13:52:02.350Z,9
2019-05-20T13:53:02.402Z,13
2019-05-20T13:54:01.539Z,13
2019-05-20T13:55:01.760Z,13
2019-05-20T13:56:01.866Z,13
2019-05-20T13:57:02.130Z,13
2019-05-20T13:58:02.512Z,13
2019-05-20T13:59:01.649Z,10
2019-05-20T14:00:07.128Z,10
2019-05-20T14:01:01.896Z,10
2019-05-20T14:02:02.126Z,10
2019-05-20T14:03:02.383Z,10
2019-05-20T14:04:01.611Z,10
2019-05-20T14:05:01.930Z,11
2019-05-20T14:06:02.077Z,11
2019-05-20T14:07:02.393Z,11
2019-05-20T14:08:01.608Z,11
2019-05-20T14:09:01.916Z,11
2019-05-20T14:10:02.213Z,11
2019-05-20T14:11:04.765Z,7
2019-05-20T14:12:01.733Z,7
2019-05-20T14:13:02.327Z,7
2019-05-20T14:14:01.568Z,7
2019-05-20T14:15:01.855Z,7
2019-05-20T14:16:02.063Z,7
2019-05-20T14:17:02.319Z,9
2019-05-20T14:18:01.463Z,9
2019-05-20T14:19:01.711Z,9
2019-05-20T14:20:02.213Z,9
2019-05-20T14:21:02.256Z,9
2019-05-20T14:22:02.437Z,9
2019-05-20T14:23:01.599Z,10
2019-05-20T14:24:01.874Z,10
2019-05-20T14:25:02.068Z,10
2019-05-20T14:26:02.295Z,10
2019-05-20T14:27:01.461Z,10
2019-05-20T14:28:01.753Z,10
2019-05-20T14:29:02.018Z,9
2019-05-20T14:30:02.567Z,9
2019-05-20T14:31:05.936Z,9
2019-05-20T14:32:01.851Z,9
2019-05-20T14:33:02.106Z,9
2019-05-20T14:34:02.112Z,9
2019-05-20T14:35:02.746Z,9
2019-05-20T14:36:01.674Z,9
2019-05-20T14:37:01.903Z,9
2019-05-20T14:38:02.062Z,9
2019-05-20T14:39:02.320Z,9
2019-05-20T14:40:01.590Z,9
2019-05-20T14:41:01.792Z,7
2019-05-20T14:42:01.976Z,7
2019-05-20T14:43:02.161Z,7
2019-05-20T14:44:02.349Z,7
2019-05-20T14:45:01.565Z,7